Green Bay, WI (54303)

2:45 PM CDT on August 24, 2016 (GMT -0500)
MountainBayTrail | | Change Station

Elev 650 ft 44.58 °N, 88.09 °W | Updated 8 seconds ago

Overcast
Overcast
76.8 °F
Feels Like 78 °F
N
4.0
Wind Variable Wind from WNW
Gusts 23.0 mph

Today
High -- | Low -- °F
--% Chance of Precip.
Yesterday
High -- | Low -- °F
Precip. -- in
Pressure 29.86 in
Visibility 10.0 miles
Clouds Overcast 2900 ft
Heat Index 78 °F
Dew Point 72 °F
Humidity 84%
Rainfall 1.19 in
Snow Depth Not available.
6:06 AM 7:41 PM
Waning Gibbous, 54% visible
SPECI KGRB 241933Z 23011G20KT 10SM OVC029 26/22 A2986 RMK AO2 T02560217 $
Pressure 29.86 in
Visibility 10.0 miles
Clouds Overcast 2900 ft
Heat Index 78 °F
Dew Point 72 °F
Humidity 84%
Rainfall 1.19 in
Snow Depth Not available.
6:06 AM 7:41 PM
Waning Gibbous, 54% visible
SPECI KGRB 241933Z 23011G20KT 10SM OVC029 26/22 A2986 RMK AO2 T02560217 $

10-Day Weather Forecast

Almanac

Astronomy

Aug. 24, 2016 Rise Set
Actual Time
Civil Twilight
Nautical Twilight
Astronomical Twilight
Moon
Length of Visible Light
Length of Day
Tomorrow will be .
, % of the Moon is Illuminated

Today's Extremes

State Highs State Lows

Community

WunderPhotos

Upload Photos

1,934,690 photos uploaded!

WunderBlog® & News

Nearby

Air Quality

  Air Quality AQ Index Pollutant
Not available.

Snow Depth

Station Depth Elevation

Earthquake Activity

City Distance Mag. Time & Date
Minimum magnitude displayed is 2.5.

Coastal Water Temperatures

Place Temperature

Stations

Nearby Weather Stations

Station Location Temp. Windchill Dew Point Humidity Wind Precip. Elev Updated Type
                   

Watches & Warnings

There are currently no watches in effect.